This is the latest recevied weather packets stored in our database for station/object DB0DUS-10. If no packets are shown the sender has not sent any weather packets the latest 10 day(s).
| Time | Temp. | Humidity | Pressure | Rain* | Wind** | Luminosity | Snow |
|---|---|---|---|---|---|---|---|
| 1777727590 | 29.44° C | 31% | 1017.7 hPa | 0 mm | - | - | - |
| 1777727289 | 30° C | 30% | 1017.7 hPa | 0 mm | - | - | - |
| 1777726090 | 33.33° C | 23% | 1017.7 hPa | 0 mm | - | - | - |
| 1777725489 | 33.33° C | 23% | 1017.7 hPa | 0 mm | - | - | - |
| 1777724590 | 33.33° C | 22% | 1017.9 hPa | 0 mm | - | - | - |
| 1777723689 | 30.56° C | 28% | 1018.1 hPa | 0 mm | - | - | - |
| 1777723090 | 28.89° C | 30% | 1018.3 hPa | 0 mm | - | - | - |
| 1777721889 | 28.89° C | 30% | 1018.5 hPa | 0 mm | - | - | - |
| 1777721590 | 28.33° C | 32% | 1018.6 hPa | 0 mm | - | - | - |
| 1777720089 | 28.33° C | 31% | 1018.9 hPa | 0 mm | - | - | - |
| 1777718590 | 27.78° C | 31% | 1019.2 hPa | 0 mm | - | - | - |
| 1777718289 | 27.78° C | 31% | 1019.2 hPa | 0 mm | - | - | - |
| 1777717090 | 27.78° C | 32% | 1019.3 hPa | 0 mm | - | - | - |
| 1777716489 | 26.67° C | 33% | 1019.4 hPa | 0 mm | - | - | - |
| 1777714689 | 25.56° C | 34% | 1019.9 hPa | 0 mm | - | - | - |
| 1777714090 | 24.44° C | 35% | 1019.9 hPa | 0 mm | - | - | - |
| 1777712889 | 22.78° C | 38% | 1020 hPa | 0 mm | - | - | - |
| 1777712590 | 22.78° C | 37% | 1019.9 hPa | 0 mm | - | - | - |
| 1777711089 | 23.33° C | 34% | 1020 hPa | 0 mm | - | - | - |
| 1777709590 | 20.56° C | 38% | 1019.8 hPa | 0 mm | - | - | - |
| 1777709289 | 20° C | 38% | 1019.9 hPa | 0 mm | - | - | - |
| 1777708090 | 20° C | 39% | 1020 hPa | 0 mm | - | - | - |
| 1777707490 | 20° C | 38% | 1020 hPa | 0 mm | - | - | - |
| 1777706590 | 20° C | 38% | 1020.1 hPa | 0 mm | - | - | - |
| 1777705690 | 18.89° C | 41% | 1019.9 hPa | 0 mm | - | - | - |
* Rain latest hour (hover to see other rain measurements)
** Current wind speed in m/s (hover to see current wind gust speed)